createdAt,value
2023-02-12T00:01:54.306Z,91.75
2023-02-12T00:04:27.811Z,90.03
2023-02-12T00:06:59.687Z,89.65
2023-02-12T00:09:36.504Z,90.19
2023-02-12T00:12:08.788Z,90.02
2023-02-12T00:14:43.896Z,89.22
2023-02-12T00:17:15.684Z,88.71
2023-02-12T00:19:47.044Z,87.43
2023-02-12T00:22:18.670Z,88.08
2023-02-12T00:24:52.954Z,91.72
2023-02-12T00:27:25.000Z,90.85
2023-02-12T00:29:56.676Z,89.30
2023-02-12T00:32:29.084Z,91.11
2023-02-12T00:35:00.931Z,90.25
2023-02-12T00:37:32.997Z,89.03
2023-02-12T00:40:10.129Z,89.42
2023-02-12T00:42:42.328Z,89.70
2023-02-12T00:45:14.084Z,90.71
2023-02-12T00:47:46.209Z,88.99
2023-02-12T00:50:17.837Z,88.77
2023-02-12T00:52:50.069Z,87.64
2023-02-12T00:55:24.717Z,88.84
2023-02-12T00:57:56.713Z,90.40
2023-02-12T01:00:28.680Z,91.96
2023-02-12T01:03:01.238Z,92.69
2023-02-12T01:05:32.926Z,93.18
2023-02-12T01:08:05.212Z,93.79
2023-02-12T01:10:39.312Z,92.05
2023-02-12T01:13:11.416Z,92.12
2023-02-12T01:15:42.813Z,92.78
2023-02-12T01:18:16.696Z,91.60
2023-02-12T01:20:48.101Z,91.20
2023-02-12T01:23:22.620Z,89.95
2023-02-12T01:26:05.468Z,90.24
2023-02-12T01:28:39.919Z,87.97
2023-02-12T01:31:14.105Z,89.42
2023-02-12T01:33:50.005Z,89.22
2023-02-12T01:36:22.025Z,92.26
2023-02-12T01:38:53.991Z,92.78
2023-02-12T01:41:30.088Z,94.11
2023-02-12T01:44:14.657Z,94.56
2023-02-12T01:46:47.322Z,94.59
2023-02-12T01:49:24.780Z,95.62
2023-02-12T01:52:02.602Z,93.60
2023-02-12T01:54:37.207Z,91.04
2023-02-12T01:57:15.296Z,89.01
2023-02-12T01:59:51.648Z,87.26
2023-02-12T02:02:23.797Z,87.24
2023-02-12T02:05:02.964Z,88.27
2023-02-12T02:07:36.051Z,87.99
2023-02-12T02:10:09.159Z,88.06
2023-02-12T02:12:55.847Z,88.24
2023-02-12T02:15:30.145Z,89.05
2023-02-12T02:18:06.456Z,88.57
2023-02-12T02:21:17.524Z,87.34
2023-02-12T02:24:17.524Z,86.24
2023-02-12T02:27:20.976Z,84.94
2023-02-12T02:30:18.594Z,85.73
2023-02-12T02:33:01.429Z,86.21
2023-02-12T02:35:40.823Z,87.20
2023-02-12T02:38:24.414Z,88.83
2023-02-12T02:41:05.902Z,88.00
2023-02-12T02:43:46.089Z,90.86
2023-02-12T02:46:21.746Z,90.99
2023-02-12T02:49:01.992Z,89.33
2023-02-12T02:51:37.752Z,91.16
2023-02-12T02:54:15.814Z,91.16
2023-02-12T02:56:51.095Z,89.61
2023-02-12T02:59:38.757Z,89.46
2023-02-12T03:02:16.224Z,90.66
2023-02-12T03:04:59.009Z,90.77
2023-02-12T03:07:34.799Z,89.89
2023-02-12T03:10:13.644Z,89.11
2023-02-12T03:12:52.087Z,89.83
2023-02-12T03:15:30.661Z,90.47
2023-02-12T03:18:05.457Z,93.09
2023-02-12T03:20:46.218Z,92.96
2023-02-12T03:23:25.056Z,90.99
2023-02-12T03:26:02.357Z,91.05
2023-02-12T03:29:05.826Z,91.88
2023-02-12T03:32:00.825Z,90.77
2023-02-12T03:34:44.626Z,89.74
2023-02-12T03:37:24.278Z,90.76
2023-02-12T03:40:01.035Z,89.68
2023-02-12T03:42:40.057Z,89.84
2023-02-12T03:45:22.249Z,89.50
2023-02-12T03:48:02.973Z,88.87
2023-02-12T03:50:42.367Z,90.16
2023-02-12T03:53:17.537Z,90.98
2023-02-12T03:55:53.990Z,90.61
2023-02-12T03:58:31.305Z,90.73
2023-02-12T04:01:04.699Z,90.97
2023-02-12T04:03:38.043Z,90.47
2023-02-12T04:06:23.918Z,90.91
2023-02-12T04:09:02.239Z,90.46
2023-02-12T04:11:42.549Z,90.64
2023-02-12T04:14:30.750Z,90.98
2023-02-12T04:17:09.322Z,88.36
2023-02-12T04:20:11.706Z,89.49
2023-02-12T04:22:56.388Z,88.91
2023-02-12T04:25:47.003Z,88.50
2023-02-12T04:28:31.130Z,88.32
2023-02-12T04:31:08.147Z,88.15
2023-02-12T04:33:48.113Z,87.49
2023-02-12T04:36:24.896Z,88.43
2023-02-12T04:39:02.295Z,88.36
2023-02-12T04:41:37.469Z,90.70
2023-02-12T04:44:21.599Z,90.38
2023-02-12T04:46:54.037Z,89.69
2023-02-12T04:49:26.846Z,88.88
2023-02-12T04:51:59.128Z,90.47
2023-02-12T04:54:31.525Z,90.78
2023-02-12T04:57:23.591Z,88.35
2023-02-12T05:00:24.317Z,87.98
2023-02-12T05:02:56.547Z,88.20
2023-02-12T05:05:28.931Z,88.41
2023-02-12T05:08:01.040Z,88.30
2023-02-12T05:10:33.490Z,88.94
2023-02-12T05:13:08.127Z,87.70
2023-02-12T05:15:42.396Z,86.73
2023-02-12T05:18:14.410Z,87.37
2023-02-12T05:20:46.895Z,87.41
2023-02-12T05:23:19.010Z,88.32
2023-02-12T05:25:51.244Z,87.44
2023-02-12T05:28:26.458Z,85.40
2023-02-12T05:31:04.220Z,86.68
2023-02-12T05:33:36.624Z,86.15
2023-02-12T05:36:11.746Z,85.11
2023-02-12T05:38:44.158Z,85.71
2023-02-12T05:41:18.333Z,85.69
2023-02-12T05:43:53.621Z,86.63
2023-02-12T05:46:25.947Z,85.35
2023-02-12T05:48:58.233Z,84.67
2023-02-12T05:51:32.512Z,85.13
2023-02-12T05:54:07.200Z,85.12
2023-02-12T05:56:40.924Z,84.67
2023-02-12T05:59:18.070Z,87.17
2023-02-12T06:01:52.397Z,85.98
2023-02-12T06:04:26.747Z,84.35
2023-02-12T06:06:59.887Z,85.76
2023-02-12T06:09:31.971Z,87.47
2023-02-12T06:12:05.016Z,87.28
2023-02-12T06:14:39.540Z,88.11
2023-02-12T06:17:12.152Z,85.71
2023-02-12T06:19:44.280Z,87.11
2023-02-12T06:22:16.734Z,85.46
2023-02-12T06:24:48.781Z,85.53
2023-02-12T06:27:20.984Z,86.67
2023-02-12T06:29:55.874Z,84.85
2023-02-12T06:32:28.172Z,86.01
2023-02-12T06:35:10.245Z,84.55
2023-02-12T06:37:42.615Z,85.58
2023-02-12T06:40:15.519Z,85.63
2023-02-12T06:42:50.112Z,87.00
2023-02-12T06:45:25.086Z,87.33
2023-02-12T06:47:57.510Z,84.79
2023-02-12T06:50:29.605Z,85.70
2023-02-12T06:53:02.191Z,84.12
2023-02-12T06:55:34.436Z,84.39
2023-02-12T06:58:08.049Z,84.36
2023-02-12T07:00:42.887Z,83.56
2023-02-12T07:03:15.141Z,84.42
2023-02-12T07:05:48.708Z,84.95
2023-02-12T07:08:21.037Z,85.52
2023-02-12T07:10:53.646Z,84.23
2023-02-12T07:13:28.781Z,83.11
2023-02-12T07:16:08.080Z,83.65
2023-02-12T07:18:41.035Z,83.00
2023-02-12T07:21:14.172Z,84.31
2023-02-12T07:23:51.464Z,84.50
2023-02-12T07:26:24.894Z,83.86
2023-02-12T07:28:57.480Z,82.78
2023-02-12T07:31:32.396Z,82.76
2023-02-12T07:34:05.027Z,82.92
2023-02-12T07:36:37.619Z,81.99
2023-02-12T07:39:09.857Z,81.96
2023-02-12T07:41:41.912Z,81.30
2023-02-12T07:44:15.739Z,81.88
2023-02-12T07:46:52.327Z,82.18
2023-02-12T07:49:25.929Z,80.76
2023-02-12T07:51:58.789Z,81.39
2023-02-12T07:54:31.216Z,81.80
2023-02-12T07:57:03.546Z,80.69
2023-02-12T07:59:36.069Z,80.77
2023-02-12T08:02:12.493Z,78.21
2023-02-12T08:04:45.115Z,79.71
2023-02-12T08:07:17.538Z,79.51
2023-02-12T08:09:49.938Z,79.70
2023-02-12T08:12:24.221Z,80.09
2023-02-12T08:14:56.353Z,77.24
2023-02-12T08:17:30.957Z,79.26
2023-02-12T08:20:03.394Z,79.11
2023-02-12T08:23:03.029Z,78.01
2023-02-12T08:25:35.369Z,79.00
2023-02-12T08:28:08.001Z,75.80
2023-02-12T08:30:40.300Z,77.52
2023-02-12T08:33:15.029Z,76.79
2023-02-12T08:35:47.431Z,75.58
2023-02-12T08:38:19.560Z,75.67
2023-02-12T08:40:51.875Z,74.89
2023-02-12T08:43:24.130Z,74.21
2023-02-12T08:46:05.936Z,75.47
2023-02-12T08:48:41.548Z,75.50
2023-02-12T08:51:16.720Z,76.33
2023-02-12T08:53:51.529Z,76.39
2023-02-12T08:56:23.852Z,76.27
2023-02-12T08:58:56.488Z,77.46
2023-02-12T09:01:30.847Z,76.86
2023-02-12T09:04:05.176Z,77.24
2023-02-12T09:06:38.947Z,79.33
2023-02-12T09:09:10.763Z,79.90
2023-02-12T09:11:42.790Z,77.90
2023-02-12T09:14:19.145Z,81.74
2023-02-12T09:16:52.866Z,81.94
2023-02-12T09:19:28.491Z,79.90
2023-02-12T09:22:00.767Z,79.72
2023-02-12T09:24:33.148Z,78.67
2023-02-12T09:27:05.087Z,77.72
2023-02-12T09:29:36.860Z,77.83
2023-02-12T09:32:09.758Z,77.53
2023-02-12T09:34:47.010Z,81.15
2023-02-12T09:37:19.237Z,79.25
2023-02-12T09:39:52.389Z,79.82
2023-02-12T09:42:47.211Z,77.62
2023-02-12T09:45:24.710Z,77.06
2023-02-12T09:48:08.246Z,78.98
2023-02-12T09:50:49.468Z,80.08
2023-02-12T09:53:24.828Z,82.90
2023-02-12T09:55:57.169Z,83.33
2023-02-12T09:58:40.496Z,86.00
2023-02-12T10:01:16.818Z,83.73
2023-02-12T10:03:52.090Z,85.67
2023-02-12T10:06:31.115Z,89.91
2023-02-12T10:09:13.117Z,87.83
2023-02-12T10:11:56.917Z,86.16
2023-02-12T10:15:01.094Z,85.16
2023-02-12T10:17:42.324Z,84.49
2023-02-12T10:20:41.435Z,86.76
2023-02-12T10:23:40.145Z,86.29
2023-02-12T10:26:22.308Z,84.10
2023-02-12T10:28:56.267Z,87.75
2023-02-12T10:31:33.078Z,87.49
2023-02-12T10:34:18.198Z,87.50
2023-02-12T10:36:54.474Z,85.55
2023-02-12T10:39:35.142Z,88.99
2023-02-12T10:42:14.832Z,92.96
2023-02-12T10:44:46.554Z,93.99
2023-02-12T10:47:23.576Z,90.29
2023-02-12T10:50:00.890Z,90.88
2023-02-12T10:52:48.336Z,91.99
2023-02-12T10:55:32.616Z,95.48
2023-02-12T10:58:07.190Z,95.35
2023-02-12T11:00:41.088Z,94.83
2023-02-12T11:03:25.797Z,94.35
2023-02-12T11:05:57.930Z,92.70
2023-02-12T11:08:36.044Z,92.60
2023-02-12T11:11:15.798Z,92.32
2023-02-12T11:13:56.414Z,94.49
2023-02-12T11:16:36.154Z,95.70
2023-02-12T11:19:10.753Z,94.88
2023-02-12T11:21:42.485Z,92.25
2023-02-12T11:24:34.101Z,89.65
2023-02-12T11:27:26.656Z,89.86
2023-02-12T11:30:17.505Z,89.80
2023-02-12T11:32:49.831Z,86.13
2023-02-12T11:35:28.915Z,86.64
2023-02-12T11:38:02.714Z,85.72
2023-02-12T11:40:36.397Z,85.27
2023-02-12T11:43:12.445Z,87.43
2023-02-12T11:45:50.274Z,89.95
2023-02-12T11:48:25.880Z,91.53
2023-02-12T11:51:01.104Z,90.70
2023-02-12T11:53:36.247Z,93.69
2023-02-12T11:56:11.579Z,91.24
2023-02-12T11:58:46.226Z,90.32
2023-02-12T12:01:24.213Z,88.95
2023-02-12T12:04:03.745Z,87.10
2023-02-12T12:06:41.198Z,87.79
2023-02-12T12:09:21.301Z,87.57
2023-02-12T12:12:08.420Z,88.05
2023-02-12T12:14:59.505Z,88.97
2023-02-12T12:17:57.149Z,87.85
2023-02-12T12:20:33.312Z,86.50
2023-02-12T12:23:08.440Z,85.69
2023-02-12T12:25:51.540Z,87.51
2023-02-12T12:28:43.332Z,86.52
2023-02-12T12:31:26.908Z,85.13
2023-02-12T12:34:09.278Z,82.95
2023-02-12T12:37:08.832Z,82.74
2023-02-12T12:39:55.406Z,82.43
2023-02-12T12:43:07.437Z,81.42
2023-02-12T12:46:08.731Z,80.61
2023-02-12T12:49:08.360Z,80.90
2023-02-12T12:51:58.039Z,80.47
2023-02-12T12:54:43.195Z,78.99
2023-02-12T12:57:28.046Z,78.77
2023-02-12T13:00:25.681Z,83.35
2023-02-12T13:03:20.741Z,81.75
2023-02-12T13:06:25.861Z,81.65
2023-02-12T13:09:27.132Z,81.17
2023-02-12T13:12:28.993Z,80.42
2023-02-12T13:15:10.500Z,78.96
2023-02-12T13:17:50.925Z,80.39
2023-02-12T13:20:30.506Z,79.92
2023-02-12T13:23:14.679Z,77.08
2023-02-12T13:25:59.331Z,78.17
2023-02-12T13:28:38.805Z,77.26
2023-02-12T13:31:32.036Z,74.50
2023-02-12T13:34:08.228Z,72.94
2023-02-12T13:36:43.561Z,73.13
2023-02-12T13:39:29.321Z,76.02
2023-02-12T13:42:12.193Z,76.79
2023-02-12T13:44:56.343Z,75.22
2023-02-12T13:47:38.304Z,75.77
2023-02-12T13:50:26.683Z,74.07
2023-02-12T13:53:03.362Z,75.90
2023-02-12T13:55:44.962Z,74.25
2023-02-12T13:59:01.139Z,73.53
2023-02-12T14:01:47.104Z,75.51
2023-02-12T14:04:35.744Z,74.84
2023-02-12T14:07:10.869Z,77.38
2023-02-12T14:09:46.271Z,76.12
2023-02-12T14:12:33.783Z,73.93
2023-02-12T14:15:10.881Z,73.81
2023-02-12T14:17:57.971Z,73.52
2023-02-12T14:23:28.784Z,76.03
2023-02-12T14:26:14.150Z,77.56
2023-02-12T14:28:55.256Z,76.44
2023-02-12T14:31:36.953Z,74.89
2023-02-12T14:34:44.971Z,72.24
2023-02-12T14:37:38.031Z,72.91
2023-02-12T14:40:43.090Z,71.11
2023-02-12T14:43:33.061Z,71.56
2023-02-12T14:46:34.487Z,72.81
2023-02-12T14:49:18.130Z,73.01
2023-02-12T14:51:57.571Z,76.25
2023-02-12T14:54:36.184Z,76.55
2023-02-12T14:57:12.541Z,75.33
2023-02-12T14:59:56.591Z,75.07
2023-02-12T15:02:31.492Z,72.86
2023-02-12T15:05:16.532Z,75.66
2023-02-12T15:07:56.388Z,75.47
2023-02-12T15:10:33.435Z,75.04
2023-02-12T15:13:16.529Z,75.48
2023-02-12T15:15:54.580Z,74.02
2023-02-12T15:18:33.938Z,75.20
2023-02-12T15:21:21.068Z,75.62
2023-02-12T15:24:05.632Z,75.69
2023-02-12T15:26:43.576Z,75.91
2023-02-12T15:29:24.937Z,75.41
2023-02-12T15:32:00.415Z,74.71
2023-02-12T15:34:37.647Z,75.61
2023-02-12T15:37:20.334Z,74.99
2023-02-12T15:39:55.697Z,75.08
2023-02-12T15:42:34.078Z,74.47
2023-02-12T15:45:19.513Z,76.16
2023-02-12T15:48:14.323Z,76.29
2023-02-12T15:50:54.437Z,76.39
2023-02-12T15:53:31.756Z,75.22
2023-02-12T15:56:06.113Z,77.36
2023-02-12T15:58:46.225Z,77.29
2023-02-12T16:01:20.575Z,78.64
2023-02-12T16:03:54.825Z,77.29
2023-02-12T16:06:28.944Z,76.84
2023-02-12T16:09:08.124Z,77.60
2023-02-12T16:11:40.724Z,78.78
2023-02-12T16:14:25.340Z,79.43
2023-02-12T16:16:59.940Z,78.54
2023-02-12T16:19:33.221Z,78.79
2023-02-12T16:22:11.442Z,79.31
2023-02-12T16:24:50.734Z,80.06
2023-02-12T16:27:24.520Z,80.67
2023-02-12T16:29:58.554Z,80.46
2023-02-12T16:32:33.878Z,80.36
2023-02-12T16:35:10.040Z,80.22
2023-02-12T16:37:52.947Z,80.20
2023-02-12T16:40:31.201Z,78.94
2023-02-12T16:43:09.065Z,80.02
2023-02-12T16:45:43.676Z,79.18
2023-02-12T16:48:25.569Z,79.51
2023-02-12T16:51:29.176Z,78.43
2023-02-12T16:54:02.966Z,80.24
2023-02-12T16:56:40.804Z,81.11
2023-02-12T16:59:13.524Z,79.81
2023-02-12T17:01:59.704Z,78.70
2023-02-12T17:04:37.325Z,79.76
2023-02-12T17:07:20.905Z,79.04
2023-02-12T17:09:53.014Z,78.75
2023-02-12T17:12:27.686Z,78.04
2023-02-12T17:14:59.395Z,76.43
2023-02-12T17:17:31.427Z,78.00
2023-02-12T17:20:02.611Z,77.61
2023-02-12T17:22:34.077Z,79.51
2023-02-12T17:25:05.122Z,80.44
2023-02-12T17:27:39.174Z,79.36
2023-02-12T17:30:11.830Z,78.47
2023-02-12T17:32:43.178Z,77.20
2023-02-12T17:35:15.555Z,78.37
2023-02-12T17:37:50.009Z,78.48
2023-02-12T17:40:24.028Z,77.88
2023-02-12T17:43:00.143Z,76.99
2023-02-12T17:45:31.291Z,78.97
2023-02-12T17:48:04.126Z,79.09
2023-02-12T17:50:37.596Z,79.00
2023-02-12T17:53:10.084Z,79.39
2023-02-12T17:55:41.594Z,79.11
2023-02-12T17:58:18.701Z,86.05
2023-02-12T18:00:50.021Z,89.98
2023-02-12T18:03:21.463Z,90.26
2023-02-12T18:05:55.296Z,87.54
2023-02-12T18:08:26.935Z,87.47
2023-02-12T18:10:58.776Z,87.68
2023-02-12T18:13:33.332Z,86.77
2023-02-12T18:16:06.252Z,88.15
2023-02-12T18:18:43.682Z,87.32
2023-02-12T18:21:19.314Z,87.51
2023-02-12T18:23:55.427Z,86.72
2023-02-12T18:26:27.474Z,88.28
2023-02-12T18:29:05.505Z,86.85
2023-02-12T18:31:38.730Z,87.74
2023-02-12T18:34:11.116Z,85.75
2023-02-12T18:36:43.386Z,85.66
2023-02-12T18:39:20.467Z,86.70
2023-02-12T18:41:51.874Z,86.50
2023-02-12T18:44:26.575Z,85.98
2023-02-12T18:47:00.081Z,85.67
2023-02-12T18:49:35.317Z,87.90
2023-02-12T18:52:06.771Z,87.23
2023-02-12T18:54:38.281Z,87.05
2023-02-12T18:57:09.356Z,87.20
2023-02-12T18:59:43.413Z,87.99
2023-02-12T19:02:15.968Z,88.10
2023-02-12T19:04:47.874Z,87.06
2023-02-12T19:07:19.845Z,86.94
2023-02-12T19:09:52.999Z,87.45
2023-02-12T19:12:26.136Z,86.79
2023-02-12T19:15:00.304Z,87.19
2023-02-12T19:17:31.401Z,89.50
2023-02-12T19:20:04.322Z,89.09
2023-02-12T19:22:35.749Z,87.23
2023-02-12T19:25:07.750Z,87.03
2023-02-12T19:27:39.349Z,87.42
2023-02-12T19:30:14.710Z,86.37
2023-02-12T19:32:46.462Z,87.44
2023-02-12T19:35:17.926Z,85.96
2023-02-12T19:37:48.883Z,88.80
2023-02-12T19:40:20.499Z,87.51
2023-02-12T19:42:51.601Z,87.21
2023-02-12T19:45:25.633Z,89.68
2023-02-12T19:47:58.496Z,90.12
2023-02-12T19:50:29.899Z,89.19
2023-02-12T19:53:01.463Z,89.90
2023-02-12T19:55:32.947Z,89.31
2023-02-12T19:58:06.234Z,90.51
2023-02-12T20:00:43.439Z,90.79
2023-02-12T20:03:14.454Z,92.04
2023-02-12T20:05:52.711Z,92.33
2023-02-12T20:08:23.816Z,92.79
2023-02-12T20:10:55.671Z,93.45
2023-02-12T20:13:28.305Z,91.11
2023-02-12T20:16:04.873Z,91.23
2023-02-12T20:19:01.649Z,93.93
2023-02-12T20:21:49.111Z,93.62
2023-02-12T20:24:20.825Z,93.28
2023-02-12T20:26:53.112Z,93.10
2023-02-12T20:29:25.400Z,92.24
2023-02-12T20:32:00.381Z,92.55
2023-02-12T20:34:49.057Z,93.19
2023-02-12T20:37:22.235Z,92.37
2023-02-12T20:39:53.845Z,92.22
2023-02-12T20:42:25.912Z,94.27
2023-02-12T20:44:57.652Z,94.40
2023-02-12T20:47:32.505Z,94.95
2023-02-12T20:50:04.584Z,96.36
2023-02-12T20:52:38.067Z,94.86
2023-02-12T20:55:10.791Z,95.73
2023-02-12T20:57:43.283Z,94.35
2023-02-12T21:00:17.723Z,94.28
2023-02-12T21:02:53.784Z,96.73
2023-02-12T21:05:25.441Z,94.70
2023-02-12T21:07:57.808Z,97.11
2023-02-12T21:10:31.240Z,100.00
2023-02-12T21:13:03.640Z,98.84
2023-02-12T21:15:35.458Z,97.38
2023-02-12T21:18:10.338Z,98.80
2023-02-12T21:20:42.314Z,100.00
2023-02-12T21:23:14.497Z,100.00
2023-02-12T21:25:46.138Z,99.40
2023-02-12T21:28:18.210Z,96.65
2023-02-12T21:30:50.097Z,95.23
2023-02-12T21:33:24.640Z,96.76
2023-02-12T21:35:56.387Z,100.00
2023-02-12T21:38:28.492Z,100.00
2023-02-12T21:41:00.114Z,98.62
2023-02-12T21:43:32.154Z,98.92
2023-02-12T21:46:03.823Z,97.60
2023-02-12T21:48:39.719Z,97.52
2023-02-12T21:51:20.652Z,97.39
2023-02-12T21:53:54.287Z,96.74
2023-02-12T21:56:26.294Z,95.91
2023-02-12T21:59:00.986Z,97.28
2023-02-12T22:01:35.029Z,96.30
2023-02-12T22:04:10.180Z,100.00
2023-02-12T22:06:43.259Z,98.74
2023-02-12T22:09:17.390Z,100.00
2023-02-12T22:11:49.150Z,99.32
2023-02-12T22:14:21.626Z,98.61
2023-02-12T22:16:53.467Z,99.66
2023-02-12T22:19:28.117Z,99.68
2023-02-12T22:21:59.699Z,100.00
2023-02-12T22:24:31.649Z,100.00
2023-02-12T22:27:03.306Z,100.00
2023-02-12T22:29:35.341Z,100.00
2023-02-12T22:32:07.312Z,100.00
2023-02-12T22:34:41.987Z,100.00
2023-02-12T22:37:14.351Z,99.72
2023-02-12T22:39:46.587Z,98.10
2023-02-12T22:45:04.042Z,100.00
2023-02-12T22:47:35.864Z,100.00
2023-02-12T22:50:11.323Z,100.00
2023-02-12T22:52:43.002Z,100.00
2023-02-12T22:55:15.001Z,100.00
2023-02-12T22:57:46.682Z,100.00
2023-02-12T23:00:20.619Z,100.00
2023-02-12T23:02:52.620Z,100.00
2023-02-12T23:05:27.805Z,98.47
2023-02-12T23:07:59.802Z,98.11
2023-02-12T23:10:32.479Z,99.00
2023-02-12T23:13:05.747Z,99.15
2023-02-12T23:15:38.113Z,98.17
2023-02-12T23:18:10.096Z,98.34
2023-02-12T23:20:45.939Z,96.73
2023-02-12T23:23:17.866Z,97.01
2023-02-12T23:25:50.602Z,95.24
2023-02-12T23:28:22.633Z,94.10
2023-02-12T23:30:56.271Z,91.34
2023-02-12T23:33:41.941Z,91.41
2023-02-12T23:36:17.113Z,91.00
2023-02-12T23:38:49.135Z,92.03
2023-02-12T23:41:21.614Z,95.29
2023-02-12T23:43:53.560Z,94.17
2023-02-12T23:46:25.956Z,92.39
2023-02-12T23:48:58.134Z,94.77
2023-02-12T23:51:37.673Z,92.05
2023-02-12T23:54:09.532Z,92.04
2023-02-12T23:56:42.238Z,96.00
2023-02-12T23:59:14.157Z,96.11
